createdAt,value
2023-11-08T00:00:43.254Z,71.54
2023-11-08T00:03:31.418Z,71.81
2023-11-08T00:05:59.672Z,71.83
2023-11-08T00:08:27.689Z,71.90
2023-11-08T00:10:56.231Z,73.49
2023-11-08T00:13:24.372Z,72.83
2023-11-08T00:15:53.004Z,72.13
2023-11-08T00:18:21.200Z,72.02
2023-11-08T00:20:49.207Z,71.76
2023-11-08T00:23:17.132Z,71.99
2023-11-08T00:25:45.167Z,72.28
2023-11-08T00:28:13.444Z,72.35
2023-11-08T00:30:42.032Z,72.57
2023-11-08T00:33:10.217Z,72.27
2023-11-08T00:35:40.239Z,72.11
2023-11-08T00:38:08.421Z,72.26
2023-11-08T00:40:36.659Z,72.58
2023-11-08T00:43:05.315Z,72.35
2023-11-08T00:45:35.452Z,71.96
2023-11-08T00:48:03.897Z,71.98
2023-11-08T00:50:32.165Z,72.24
2023-11-08T00:53:00.718Z,71.67
2023-11-08T00:55:28.662Z,72.41
2023-11-08T00:57:57.770Z,72.66
2023-11-08T01:00:26.169Z,72.30
2023-11-08T01:02:54.955Z,72.19
2023-11-08T01:05:23.292Z,71.91
2023-11-08T01:07:51.285Z,71.69
2023-11-08T01:10:22.072Z,71.35
2023-11-08T01:12:54.896Z,70.87
2023-11-08T01:15:22.907Z,69.99
2023-11-08T01:17:51.429Z,71.02
2023-11-08T01:20:19.779Z,71.99
2023-11-08T01:22:49.150Z,71.43
2023-11-08T01:25:18.046Z,70.83
2023-11-08T01:27:46.377Z,72.35
2023-11-08T01:30:14.846Z,72.14
2023-11-08T01:32:43.303Z,71.63
2023-11-08T01:35:12.932Z,72.39
2023-11-08T01:37:41.225Z,72.49
2023-11-08T01:40:09.666Z,72.39
2023-11-08T01:42:37.913Z,72.19
2023-11-08T01:45:06.386Z,71.43
2023-11-08T01:47:38.037Z,72.25
2023-11-08T01:50:08.526Z,72.08
2023-11-08T01:52:37.758Z,72.62
2023-11-08T01:55:06.241Z,73.01
2023-11-08T01:57:34.601Z,73.62
2023-11-08T02:00:04.194Z,73.32
2023-11-08T02:02:41.640Z,73.31
2023-11-08T02:05:11.407Z,73.80
2023-11-08T02:07:39.673Z,73.94
2023-11-08T02:10:10.206Z,73.80
2023-11-08T02:12:41.476Z,73.37
2023-11-08T02:15:12.799Z,72.60
2023-11-08T02:17:41.013Z,72.31
2023-11-08T02:20:09.752Z,72.13
2023-11-08T02:22:37.975Z,71.75
2023-11-08T02:25:06.725Z,71.32
2023-11-08T02:27:34.741Z,71.35
2023-11-08T02:30:04.627Z,71.72
2023-11-08T02:32:34.537Z,71.57
2023-11-08T02:35:02.777Z,71.50
2023-11-08T02:37:31.968Z,71.18
2023-11-08T02:39:59.956Z,71.00
2023-11-08T02:42:29.362Z,70.86
2023-11-08T02:44:57.552Z,70.63
2023-11-08T02:47:25.568Z,70.32
2023-11-08T02:49:54.392Z,70.44
2023-11-08T02:52:22.860Z,70.01
2023-11-08T02:54:52.512Z,70.02
2023-11-08T02:57:20.714Z,70.45
2023-11-08T02:59:48.903Z,71.62
2023-11-08T03:02:17.015Z,72.10
2023-11-08T03:04:45.168Z,72.65
2023-11-08T03:07:13.516Z,73.13
2023-11-08T03:09:41.689Z,73.09
2023-11-08T03:12:10.268Z,73.40
2023-11-08T03:14:38.260Z,73.14
2023-11-08T03:17:06.237Z,72.90
2023-11-08T03:19:34.193Z,72.47
2023-11-08T03:22:03.902Z,72.15
2023-11-08T03:24:32.339Z,71.58
2023-11-08T03:27:00.447Z,71.44
2023-11-08T03:29:28.739Z,71.64
2023-11-08T03:31:58.420Z,71.93
2023-11-08T03:34:27.884Z,71.85
2023-11-08T03:36:56.152Z,72.06
2023-11-08T03:39:24.298Z,71.71
2023-11-08T03:41:52.209Z,71.99
2023-11-08T03:44:20.348Z,71.54
2023-11-08T03:46:48.409Z,71.11
2023-11-08T03:49:16.594Z,71.13
2023-11-08T03:51:44.740Z,72.20
2023-11-08T03:54:12.953Z,72.77
2023-11-08T03:56:41.082Z,72.60
2023-11-08T03:59:10.788Z,72.29
2023-11-08T04:01:39.244Z,72.10
2023-11-08T04:04:07.292Z,71.82
2023-11-08T04:06:35.395Z,71.76
2023-11-08T04:09:03.706Z,71.63
2023-11-08T04:11:32.001Z,71.56
2023-11-08T04:14:01.165Z,71.25
2023-11-08T04:16:29.312Z,71.53
2023-11-08T04:18:57.314Z,71.25
2023-11-08T04:21:25.388Z,70.81
2023-11-08T04:23:53.406Z,71.29
2023-11-08T04:26:22.983Z,71.97
2023-11-08T04:28:52.351Z,72.00
2023-11-08T04:31:20.543Z,71.79
2023-11-08T04:33:49.503Z,71.92
2023-11-08T04:36:18.486Z,72.12
2023-11-08T04:38:46.650Z,72.47
2023-11-08T04:41:18.784Z,73.11
2023-11-08T04:43:46.968Z,73.06
2023-11-08T04:46:15.925Z,72.98
2023-11-08T04:48:45.475Z,73.38
2023-11-08T04:51:13.475Z,73.79
2023-11-08T04:53:41.408Z,73.06
2023-11-08T04:56:09.759Z,72.24
2023-11-08T04:58:37.802Z,72.17
2023-11-08T05:01:05.779Z,71.77
2023-11-08T05:03:33.802Z,71.16
2023-11-08T05:06:01.917Z,71.02
2023-11-08T05:08:30.506Z,71.49
2023-11-08T05:10:58.671Z,71.71
2023-11-08T05:13:26.613Z,71.57
2023-11-08T05:15:54.675Z,71.00
2023-11-08T05:18:22.760Z,71.39
2023-11-08T05:20:50.724Z,72.14
2023-11-08T05:23:18.636Z,72.61
2023-11-08T05:25:46.693Z,73.10
2023-11-08T05:28:14.746Z,72.64
2023-11-08T05:30:43.105Z,71.92
2023-11-08T05:33:12.436Z,71.59
2023-11-08T05:35:40.639Z,71.60
2023-11-08T05:38:10.435Z,71.89
2023-11-08T05:40:39.216Z,72.74
2023-11-08T05:43:07.765Z,73.27
2023-11-08T05:45:35.769Z,73.22
2023-11-08T05:48:04.508Z,73.30
2023-11-08T05:50:32.772Z,72.82
2023-11-08T05:53:00.899Z,72.22
2023-11-08T05:55:28.949Z,72.36
2023-11-08T05:57:57.201Z,72.23
2023-11-08T06:00:26.548Z,72.46
2023-11-08T06:02:55.000Z,72.47
2023-11-08T06:05:23.848Z,72.15
2023-11-08T06:07:51.825Z,72.37
2023-11-08T06:10:19.773Z,71.78
2023-11-08T06:12:48.145Z,71.78
2023-11-08T06:15:17.399Z,70.82
2023-11-08T06:17:45.543Z,71.21
2023-11-08T06:20:14.036Z,71.24
2023-11-08T06:22:42.243Z,70.41
2023-11-08T06:25:10.408Z,69.69
2023-11-08T06:27:38.910Z,69.11
2023-11-08T06:30:07.306Z,69.04
2023-11-08T06:32:36.377Z,68.99
2023-11-08T06:35:05.277Z,68.92
2023-11-08T06:37:33.273Z,68.51
2023-11-08T06:40:01.474Z,66.14
2023-11-08T06:42:29.695Z,65.40
2023-11-08T06:44:58.509Z,64.78
2023-11-08T06:47:27.444Z,63.67
2023-11-08T06:49:55.667Z,63.28
2023-11-08T06:52:26.367Z,62.35
2023-11-08T06:54:54.584Z,62.00
2023-11-08T06:57:22.794Z,61.70
2023-11-08T06:59:50.977Z,62.38
2023-11-08T07:02:21.646Z,62.51
2023-11-08T07:04:50.020Z,63.09
2023-11-08T07:07:18.186Z,63.87
2023-11-08T07:09:48.870Z,63.00
2023-11-08T07:12:17.263Z,63.20
2023-11-08T07:14:45.205Z,62.99
2023-11-08T07:17:13.883Z,63.20
2023-11-08T07:19:42.930Z,64.05
2023-11-08T07:22:10.866Z,62.70
2023-11-08T07:24:38.870Z,62.23
2023-11-08T07:27:08.094Z,61.87
2023-11-08T07:29:36.234Z,61.78
2023-11-08T07:32:04.729Z,61.96
2023-11-08T07:34:34.250Z,61.36
2023-11-08T07:37:02.536Z,60.86
2023-11-08T07:39:30.958Z,61.10
2023-11-08T07:41:58.959Z,60.26
2023-11-08T07:44:31.453Z,60.01
2023-11-08T07:46:59.782Z,60.55
2023-11-08T07:49:30.906Z,60.65
2023-11-08T07:51:59.090Z,60.77
2023-11-08T07:54:27.214Z,61.92
2023-11-08T07:56:55.245Z,62.12
2023-11-08T07:59:23.926Z,61.71
2023-11-08T08:01:52.661Z,61.18
2023-11-08T08:04:21.095Z,60.92
2023-11-08T08:06:49.167Z,60.59
2023-11-08T08:09:18.886Z,60.93
2023-11-08T08:11:47.118Z,61.25
2023-11-08T08:14:15.553Z,60.72
2023-11-08T08:16:45.136Z,60.26
2023-11-08T08:19:13.420Z,59.75
2023-11-08T08:21:41.792Z,58.57
2023-11-08T08:24:10.224Z,57.97
2023-11-08T08:26:40.226Z,58.08
2023-11-08T08:29:10.596Z,57.92
2023-11-08T08:31:38.834Z,56.95
2023-11-08T08:34:10.211Z,57.31
2023-11-08T08:36:42.636Z,57.63
2023-11-08T08:39:10.783Z,56.65
2023-11-08T08:41:38.846Z,56.47
2023-11-08T08:44:06.901Z,56.76
2023-11-08T08:46:37.251Z,57.18
2023-11-08T08:49:05.462Z,58.32
2023-11-08T08:51:33.872Z,58.73
2023-11-08T08:54:02.168Z,58.08
2023-11-08T08:56:30.808Z,58.01
2023-11-08T08:58:58.894Z,57.40
2023-11-08T09:01:27.329Z,57.20
2023-11-08T09:03:58.859Z,57.32
2023-11-08T09:06:27.071Z,56.88
2023-11-08T09:08:55.106Z,58.16
2023-11-08T09:11:23.486Z,59.23
2023-11-08T09:13:51.655Z,59.28
2023-11-08T09:16:23.184Z,61.51
2023-11-08T09:18:51.666Z,62.76
2023-11-08T09:21:22.198Z,63.26
2023-11-08T09:23:50.207Z,63.51
2023-11-08T09:26:19.917Z,64.75
2023-11-08T09:28:48.442Z,67.98
2023-11-08T09:31:17.980Z,69.49
2023-11-08T09:33:46.654Z,69.06
2023-11-08T09:36:15.037Z,68.75
2023-11-08T09:38:43.057Z,68.23
2023-11-08T09:41:11.423Z,68.87
2023-11-08T09:43:39.666Z,69.23
2023-11-08T09:46:08.561Z,68.77
2023-11-08T09:48:36.667Z,67.59
2023-11-08T09:51:04.856Z,66.34
2023-11-08T09:53:34.110Z,64.78
2023-11-08T09:56:02.497Z,63.92
2023-11-08T09:58:32.057Z,64.02
2023-11-08T10:01:00.469Z,62.45
2023-11-08T10:03:30.039Z,62.48
2023-11-08T10:05:58.286Z,62.76
2023-11-08T10:08:26.591Z,61.58
2023-11-08T10:10:57.670Z,61.69
2023-11-08T10:13:41.508Z,61.98
2023-11-08T10:16:16.208Z,62.69
2023-11-08T10:19:35.891Z,62.58
2023-11-08T10:21:52.416Z,62.53
2023-11-08T10:24:20.791Z,63.31
2023-11-08T10:26:48.792Z,63.77
2023-11-08T10:29:17.355Z,62.52
2023-11-08T10:31:45.962Z,62.75
2023-11-08T10:34:17.210Z,62.82
2023-11-08T10:36:45.239Z,62.06
2023-11-08T10:39:15.687Z,61.80
2023-11-08T10:41:45.414Z,62.19
2023-11-08T10:44:14.301Z,62.09
2023-11-08T10:46:43.354Z,61.15
2023-11-08T10:49:12.716Z,61.15
2023-11-08T10:51:43.268Z,60.37
2023-11-08T10:54:11.526Z,59.77
2023-11-08T10:56:43.045Z,58.90
2023-11-08T10:59:12.619Z,58.75
2023-11-08T11:01:43.377Z,58.79
2023-11-08T11:04:14.900Z,61.38
2023-11-08T11:06:43.080Z,62.29
2023-11-08T11:09:12.038Z,62.70
2023-11-08T11:11:43.685Z,62.20
2023-11-08T11:14:16.667Z,62.50
2023-11-08T11:16:54.604Z,63.42
2023-11-08T11:19:26.873Z,62.74
2023-11-08T11:21:55.794Z,61.42
2023-11-08T11:24:44.545Z,60.58
2023-11-08T11:27:36.527Z,59.71
2023-11-08T11:30:23.882Z,58.48
2023-11-08T11:32:54.071Z,54.27
2023-11-08T11:35:31.350Z,42.89
2023-11-08T11:38:08.790Z,40.72
2023-11-08T11:40:37.525Z,39.63
2023-11-08T11:43:24.901Z,37.79
2023-11-08T11:45:53.380Z,40.09
2023-11-08T11:48:22.695Z,39.23
2023-11-08T11:50:50.997Z,39.09
2023-11-08T11:53:19.320Z,38.11
2023-11-08T11:55:47.456Z,38.02
2023-11-08T11:58:21.659Z,37.21
2023-11-08T12:00:55.101Z,37.43
2023-11-08T12:03:23.353Z,36.89
2023-11-08T12:05:51.573Z,37.09
2023-11-08T12:08:19.507Z,36.72
2023-11-08T12:10:50.342Z,36.90
2023-11-08T12:13:18.720Z,37.17
2023-11-08T12:16:00.576Z,37.61
2023-11-08T12:18:29.080Z,37.79
2023-11-08T12:20:57.488Z,38.67
2023-11-08T12:23:25.677Z,38.63
2023-11-08T12:25:53.653Z,38.73
2023-11-08T12:28:21.573Z,39.28
2023-11-08T12:30:49.667Z,39.49
2023-11-08T12:33:17.905Z,40.26
2023-11-08T12:35:46.966Z,41.80
2023-11-08T12:38:15.337Z,44.37
2023-11-08T12:40:43.674Z,46.00
2023-11-08T12:43:57.077Z,46.51
2023-11-08T12:46:36.366Z,47.74
2023-11-08T12:48:58.389Z,48.86
2023-11-08T12:51:31.099Z,48.55
2023-11-08T12:54:03.127Z,49.16
2023-11-08T12:56:37.721Z,49.09
2023-11-08T12:59:12.807Z,49.39
2023-11-08T13:01:41.140Z,48.94
2023-11-08T13:04:10.663Z,48.70
2023-11-08T13:06:38.903Z,48.85
2023-11-08T13:09:09.680Z,49.16
2023-11-08T13:11:37.793Z,49.65
2023-11-08T13:14:08.582Z,50.22
2023-11-08T13:16:36.991Z,50.87
2023-11-08T13:19:05.180Z,52.06
2023-11-08T13:21:33.974Z,53.06
2023-11-08T13:24:07.040Z,53.65
2023-11-08T13:26:37.230Z,54.72
2023-11-08T13:29:08.217Z,55.22
2023-11-08T13:31:38.123Z,55.16
2023-11-08T13:34:09.399Z,55.01
2023-11-08T13:36:37.564Z,55.50
2023-11-08T13:39:08.465Z,55.98
2023-11-08T13:41:36.704Z,56.62
2023-11-08T13:44:05.081Z,57.71
2023-11-08T13:46:33.273Z,57.92
2023-11-08T13:49:02.061Z,58.38
2023-11-08T13:51:30.269Z,59.01
2023-11-08T13:53:58.190Z,59.24
2023-11-08T13:56:26.279Z,60.56
2023-11-08T13:58:55.189Z,60.16
2023-11-08T14:01:23.318Z,60.22
2023-11-08T14:03:51.455Z,60.21
2023-11-08T14:06:19.523Z,60.79
2023-11-08T14:08:47.937Z,61.41
2023-11-08T14:11:16.485Z,61.09
2023-11-08T14:13:44.818Z,61.78
2023-11-08T14:16:13.086Z,62.16
2023-11-08T14:18:41.591Z,62.37
2023-11-08T14:21:09.799Z,62.09
2023-11-08T14:23:37.955Z,62.33
2023-11-08T14:26:08.213Z,62.67
2023-11-08T14:28:36.292Z,62.89
2023-11-08T14:31:06.581Z,63.61
2023-11-08T14:33:35.129Z,64.43
2023-11-08T14:36:04.100Z,64.83
2023-11-08T14:38:32.715Z,65.64
2023-11-08T14:41:00.899Z,67.10
2023-11-08T14:43:29.019Z,68.38
2023-11-08T14:45:57.556Z,69.45
2023-11-08T14:48:26.474Z,70.32
2023-11-08T14:50:54.841Z,71.03
2023-11-08T14:53:23.054Z,71.26
2023-11-08T14:55:51.160Z,71.37
2023-11-08T14:58:19.266Z,71.46
2023-11-08T15:00:47.410Z,71.71
2023-11-08T15:03:15.562Z,72.28
2023-11-08T15:05:43.640Z,72.89
2023-11-08T15:09:49.102Z,73.14
2023-11-08T15:10:59.615Z,72.78
2023-11-08T15:13:27.690Z,71.03
2023-11-08T15:15:55.756Z,70.79
2023-11-08T15:18:26.815Z,70.73
2023-11-08T15:20:55.532Z,70.60
2023-11-08T15:23:23.720Z,71.16
2023-11-08T15:25:51.710Z,72.06
2023-11-08T15:28:20.382Z,72.75
2023-11-08T15:30:48.379Z,73.24
2023-11-08T15:33:16.766Z,73.68
2023-11-08T15:35:44.946Z,73.93
2023-11-08T15:38:12.906Z,74.61
2023-11-08T15:40:40.846Z,75.24
2023-11-08T15:43:09.635Z,75.44
2023-11-08T15:45:38.152Z,75.56
2023-11-08T15:48:06.528Z,75.39
2023-11-08T15:50:34.792Z,75.39
2023-11-08T15:53:04.329Z,75.44
2023-11-08T15:55:34.170Z,75.28
2023-11-08T15:58:02.532Z,75.79
2023-11-08T16:00:31.277Z,76.46
2023-11-08T16:03:00.824Z,76.86
2023-11-08T16:05:29.031Z,76.67
2023-11-08T16:07:58.824Z,77.15
2023-11-08T16:10:27.770Z,77.13
2023-11-08T16:12:57.937Z,76.64
2023-11-08T16:15:26.357Z,76.60
2023-11-08T16:17:54.342Z,76.43
2023-11-08T16:20:23.916Z,76.78
2023-11-08T16:22:52.094Z,76.67
2023-11-08T16:25:20.197Z,77.26
2023-11-08T16:27:48.297Z,77.48
2023-11-08T16:30:17.188Z,77.96
2023-11-08T16:32:45.571Z,78.15
2023-11-08T16:35:14.168Z,78.33
2023-11-08T16:37:42.835Z,78.05
2023-11-08T16:40:13.462Z,78.03
2023-11-08T16:42:42.164Z,78.28
2023-11-08T16:45:11.115Z,78.67
2023-11-08T16:47:39.608Z,78.99
2023-11-08T16:50:07.866Z,79.63
2023-11-08T16:52:36.242Z,79.70
2023-11-08T16:55:06.334Z,80.20
2023-11-08T16:57:35.615Z,80.66
2023-11-08T17:00:07.294Z,81.18
2023-11-08T17:02:37.945Z,81.83
2023-11-08T17:05:06.240Z,82.02
2023-11-08T17:07:34.857Z,82.09
2023-11-08T17:10:05.184Z,82.06
2023-11-08T17:12:33.201Z,81.96
2023-11-08T17:15:01.188Z,81.95
2023-11-08T17:17:29.463Z,82.09
2023-11-08T17:19:57.580Z,82.17
2023-11-08T17:22:25.745Z,82.20
2023-11-08T17:24:53.812Z,82.67
2023-11-08T17:27:22.046Z,82.91
2023-11-08T17:29:49.983Z,83.46
2023-11-08T17:32:18.050Z,83.85
2023-11-08T17:34:47.018Z,84.24
2023-11-08T17:37:16.007Z,84.86
2023-11-08T17:39:44.097Z,85.23
2023-11-08T17:42:12.125Z,85.62
2023-11-08T17:44:40.300Z,86.06
2023-11-08T17:47:10.753Z,86.31
2023-11-08T17:49:41.308Z,86.93
2023-11-08T17:52:09.967Z,87.77
2023-11-08T17:54:38.145Z,88.00
2023-11-08T17:57:06.774Z,88.26
2023-11-08T17:59:34.999Z,88.14
2023-11-08T18:02:05.356Z,88.90
2023-11-08T18:04:34.834Z,89.44
2023-11-08T18:07:03.473Z,90.17
2023-11-08T18:09:33.261Z,90.48
2023-11-08T18:12:01.750Z,90.96
2023-11-08T18:14:30.015Z,91.26
2023-11-08T18:16:59.027Z,92.65
2023-11-08T18:19:27.983Z,92.66
2023-11-08T18:21:56.282Z,92.51
2023-11-08T18:24:25.804Z,92.77
2023-11-08T18:26:57.224Z,93.61
2023-11-08T18:29:25.409Z,92.95
2023-11-08T18:31:55.816Z,93.16
2023-11-08T18:34:27.236Z,93.49
2023-11-08T18:36:55.509Z,93.39
2023-11-08T18:39:23.942Z,93.05
2023-11-08T18:41:52.052Z,93.51
2023-11-08T18:44:23.226Z,93.62
2023-11-08T18:46:51.396Z,93.84
2023-11-08T18:49:19.495Z,93.31
2023-11-08T18:51:50.440Z,92.33
2023-11-08T18:54:20.833Z,91.31
2023-11-08T18:56:51.485Z,90.45
2023-11-08T18:59:22.836Z,89.80
2023-11-08T19:01:50.907Z,88.86
2023-11-08T19:04:19.283Z,89.31
2023-11-08T19:06:51.023Z,90.06
2023-11-08T19:09:20.224Z,90.22
2023-11-08T19:11:48.651Z,90.28
2023-11-08T19:14:20.184Z,90.04
2023-11-08T19:16:48.220Z,90.12
2023-11-08T19:19:18.973Z,90.11
2023-11-08T19:21:49.513Z,90.24
2023-11-08T19:24:17.589Z,90.42
2023-11-08T19:26:45.661Z,90.65
2023-11-08T19:29:13.656Z,89.88
2023-11-08T19:31:41.692Z,90.35
2023-11-08T19:34:11.047Z,90.70
2023-11-08T19:36:39.188Z,90.20
2023-11-08T19:39:07.204Z,89.84
2023-11-08T19:41:35.180Z,90.30
2023-11-08T19:44:03.248Z,89.02
2023-11-08T19:46:32.529Z,87.97
2023-11-08T19:49:03.444Z,86.49
2023-11-08T19:51:32.135Z,85.56
2023-11-08T19:54:00.531Z,84.49
2023-11-08T19:56:28.974Z,84.11
2023-11-08T19:58:58.498Z,83.24
2023-11-08T20:01:29.515Z,83.59
2023-11-08T20:03:57.480Z,84.33
2023-11-08T20:06:25.738Z,84.30
2023-11-08T20:08:53.917Z,84.85
2023-11-08T20:11:23.371Z,85.29
2023-11-08T20:13:51.492Z,85.71
2023-11-08T20:16:19.430Z,86.03
2023-11-08T20:18:47.713Z,86.26
2023-11-08T20:21:15.892Z,86.94
2023-11-08T20:23:44.251Z,87.35
2023-11-08T20:26:12.157Z,87.85
2023-11-08T20:28:40.633Z,87.72
2023-11-08T20:31:09.193Z,87.77
2023-11-08T20:33:42.470Z,87.70
2023-11-08T20:36:11.015Z,86.95
2023-11-08T20:38:54.445Z,86.47
2023-11-08T20:41:22.619Z,85.24
2023-11-08T20:43:50.830Z,84.46
2023-11-08T20:46:19.176Z,83.86
2023-11-08T20:48:47.835Z,84.15
2023-11-08T20:51:18.969Z,84.16
2023-11-08T20:53:46.977Z,83.11
2023-11-08T20:56:18.619Z,83.32
2023-11-08T20:58:48.768Z,82.84
2023-11-08T21:01:19.953Z,82.28
2023-11-08T21:03:48.514Z,82.21
2023-11-08T21:06:18.732Z,81.93
2023-11-08T21:08:49.702Z,82.66
2023-11-08T21:11:21.101Z,83.18
2023-11-08T21:13:49.136Z,83.59
2023-11-08T21:16:18.162Z,83.46
2023-11-08T21:18:50.055Z,82.98
2023-11-08T21:21:24.436Z,83.34
2023-11-08T21:23:52.414Z,82.53
2023-11-08T21:26:21.976Z,81.67
2023-11-08T21:28:49.972Z,81.34
2023-11-08T21:31:18.014Z,80.89
2023-11-08T21:33:46.073Z,80.05
2023-11-08T21:36:14.489Z,79.59
2023-11-08T21:38:46.370Z,78.60
2023-11-08T21:41:14.532Z,78.05
2023-11-08T21:43:42.523Z,77.97
2023-11-08T21:46:10.738Z,77.57
2023-11-08T21:48:39.345Z,77.64
2023-11-08T21:51:07.641Z,77.57
2023-11-08T21:53:35.569Z,78.13
2023-11-08T21:56:03.691Z,77.86
2023-11-08T21:58:31.703Z,77.47
2023-11-08T22:01:00.316Z,76.95
2023-11-08T22:03:28.588Z,77.12
2023-11-08T22:05:57.465Z,77.49
2023-11-08T22:08:25.443Z,77.02
2023-11-08T22:10:53.374Z,76.34
2023-11-08T22:13:21.497Z,76.18
2023-11-08T22:15:49.597Z,75.80
2023-11-08T22:18:17.600Z,75.42
2023-11-08T22:20:45.507Z,75.29
2023-11-08T22:23:13.709Z,74.45
2023-11-08T22:25:41.814Z,73.76
2023-11-08T22:28:10.107Z,73.96
2023-11-08T22:30:38.219Z,73.52
2023-11-08T22:33:09.286Z,73.40
2023-11-08T22:35:37.554Z,73.43
2023-11-08T22:38:05.695Z,73.28
2023-11-08T22:40:33.954Z,73.54
2023-11-08T22:43:02.057Z,74.64
2023-11-08T22:45:33.051Z,74.67
2023-11-08T22:48:01.147Z,74.74
2023-11-08T22:50:29.621Z,74.18
2023-11-08T22:52:57.858Z,73.42
2023-11-08T22:55:26.364Z,72.27
2023-11-08T22:57:54.420Z,71.56
2023-11-08T23:00:29.261Z,70.78
2023-11-08T23:03:01.730Z,71.18
2023-11-08T23:05:36.279Z,69.88
2023-11-08T23:08:04.247Z,69.58
2023-11-08T23:10:32.248Z,69.04
2023-11-08T23:13:00.256Z,67.93
2023-11-08T23:15:28.918Z,67.31
2023-11-08T23:18:00.259Z,67.27
2023-11-08T23:20:28.487Z,67.31
2023-11-08T23:22:58.593Z,67.25
2023-11-08T23:25:27.037Z,66.87
2023-11-08T23:27:55.306Z,66.72
2023-11-08T23:30:23.353Z,66.67
2023-11-08T23:32:51.524Z,67.11
2023-11-08T23:35:19.811Z,67.41
2023-11-08T23:37:53.509Z,66.78
2023-11-08T23:40:23.069Z,65.83
2023-11-08T23:42:51.492Z,66.92
2023-11-08T23:45:19.540Z,66.60
2023-11-08T23:47:48.672Z,66.04
2023-11-08T23:50:17.722Z,64.99
2023-11-08T23:52:47.200Z,64.56
2023-11-08T23:55:15.516Z,65.55
2023-11-08T23:57:43.667Z,66.65
